createdAt,value
2019-05-09T07:15:09.855Z,63.60
2019-05-09T07:17:38.830Z,64.10
2019-05-09T07:20:08.381Z,64.20
2019-05-09T07:22:41.795Z,63.10
2019-05-09T07:25:12.122Z,63.90
2019-05-09T07:27:44.195Z,66.10
2019-05-09T07:30:18.080Z,66.00
2019-05-09T07:32:48.723Z,65.70
2019-05-09T07:35:18.554Z,66.00
2019-05-09T07:37:48.735Z,67.40
2019-05-09T07:40:18.189Z,67.00
2019-05-09T07:42:47.951Z,68.70
2019-05-09T07:45:17.859Z,68.60
2019-05-09T07:47:47.824Z,66.30
2019-05-09T07:50:18.964Z,67.00
2019-05-09T07:52:47.703Z,68.00
2019-05-09T07:55:18.102Z,69.40
2019-05-09T07:57:54.740Z,70.00
2019-05-09T08:00:20.103Z,67.40
2019-05-09T08:02:48.655Z,67.10
2019-05-09T08:05:27.870Z,67.80
2019-05-09T08:07:58.382Z,67.40
2019-05-09T08:10:30.600Z,68.60
2019-05-09T08:12:58.544Z,69.40
2019-05-09T08:15:28.038Z,70.20
2019-05-09T08:17:59.186Z,70.90
2019-05-09T08:20:27.786Z,69.30
2019-05-09T08:22:58.664Z,70.30
2019-05-09T08:25:27.668Z,69.00
2019-05-09T08:27:58.687Z,69.30
2019-05-09T08:30:32.976Z,71.00
2019-05-09T08:32:59.507Z,70.10
2019-05-09T08:35:27.936Z,69.70
2019-05-09T08:37:58.340Z,68.20
2019-05-09T08:40:28.497Z,67.20
2019-05-09T08:42:58.912Z,69.40
2019-05-09T08:45:30.747Z,69.50
2019-05-09T08:47:57.866Z,70.40
2019-05-09T08:50:30.969Z,69.90
2019-05-09T08:52:59.536Z,69.00
2019-05-09T08:55:28.079Z,68.50
2019-05-09T08:57:58.688Z,69.90
2019-05-09T09:00:28.097Z,70.30
2019-05-09T09:02:57.569Z,66.90
2019-05-09T09:05:28.679Z,66.00
2019-05-09T09:07:57.873Z,66.60
2019-05-09T09:10:29.054Z,66.00
2019-05-09T09:12:58.020Z,65.50
2019-05-09T09:15:50.093Z,66.70
2019-05-09T09:17:57.927Z,64.80
2019-05-09T09:20:28.710Z,64.30
2019-05-09T09:22:58.224Z,63.80
2019-05-09T09:25:28.685Z,62.10
2019-05-09T09:27:58.140Z,59.90
2019-05-09T09:30:29.255Z,62.80
2019-05-09T09:32:58.563Z,62.60
2019-05-09T09:35:27.928Z,61.40
2019-05-09T09:37:57.995Z,63.50
2019-05-09T09:40:27.869Z,59.80
2019-05-09T09:42:58.145Z,57.40
2019-05-09T09:45:28.020Z,57.70
2019-05-09T09:47:59.215Z,58.10
2019-05-09T09:50:27.699Z,58.10
2019-05-09T09:52:58.949Z,57.40
2019-05-09T09:55:27.837Z,56.20
2019-05-09T09:57:57.762Z,54.10
2019-05-09T10:00:49.008Z,52.40
2019-05-09T10:03:18.667Z,52.60
2019-05-09T10:05:48.583Z,52.50
2019-05-09T10:08:18.151Z,51.30
2019-05-09T10:10:48.401Z,50.00
2019-05-09T10:13:18.535Z,48.70
2019-05-09T10:15:58.766Z,46.40
2019-05-09T10:18:38.247Z,48.20
2019-05-09T10:21:08.380Z,48.70
2019-05-09T10:23:37.834Z,49.00
2019-05-09T10:26:08.562Z,46.30
2019-05-09T10:28:38.043Z,46.40
2019-05-09T10:31:06.725Z,45.00
2019-05-09T10:33:37.366Z,46.70
2019-05-09T10:36:08.229Z,45.90
2019-05-09T10:38:38.350Z,44.10
2019-05-09T10:41:08.232Z,46.30
2019-05-09T10:43:39.002Z,45.60
2019-05-09T10:46:18.884Z,44.10
2019-05-09T10:48:47.926Z,46.60
